sensor_id;sensor_type;location;lat;lon;timestamp;pressure;altitude;pressure_sealevel;temperature;humidity
81299;BME280;70766;53.170;18.160;2023-08-06T00:01:15;100364.30;;;15.03;100.00
81299;BME280;70766;53.170;18.160;2023-08-06T00:03:49;100359.00;;;15.02;100.00
81299;BME280;70766;53.170;18.160;2023-08-06T00:06:17;100348.16;;;14.99;100.00
81299;BME280;70766;53.170;18.160;2023-08-06T00:08:46;100334.20;;;14.95;100.00
81299;BME280;70766;53.170;18.160;2023-08-06T00:11:14;100328.52;;;14.94;100.00
81299;BME280;70766;53.170;18.160;2023-08-06T00:13:42;100323.60;;;14.92;100.00
81299;BME280;70766;53.170;18.160;2023-08-06T00:16:11;100318.52;;;14.90;100.00
81299;BME280;70766;53.170;18.160;2023-08-06T00:18:40;100310.02;;;14.89;100.00
81299;BME280;70766;53.170;18.160;2023-08-06T00:21:08;100304.66;;;14.89;100.00
81299;BME280;70766;53.170;18.160;2023-08-06T00:23:36;100306.45;;;14.89;100.00
81299;BME280;70766;53.170;18.160;2023-08-06T00:26:04;100309.70;;;14.90;100.00
81299;BME280;70766;53.170;18.160;2023-08-06T00:28:32;100310.66;;;14.91;100.00
81299;BME280;70766;53.170;18.160;2023-08-06T00:31:00;100299.12;;;14.93;100.00
81299;BME280;70766;53.170;18.160;2023-08-06T00:33:28;100289.50;;;14.95;100.00
81299;BME280;70766;53.170;18.160;2023-08-06T00:35:56;100279.52;;;14.95;100.00
81299;BME280;70766;53.170;18.160;2023-08-06T00:38:24;100268.45;;;14.99;100.00
81299;BME280;70766;53.170;18.160;2023-08-06T00:40:52;100261.09;;;14.98;100.00
81299;BME280;70766;53.170;18.160;2023-08-06T00:43:21;100258.58;;;14.92;100.00
81299;BME280;70766;53.170;18.160;2023-08-06T00:45:49;100263.27;;;14.90;100.00
81299;BME280;70766;53.170;18.160;2023-08-06T00:48:17;100260.48;;;14.90;100.00
81299;BME280;70766;53.170;18.160;2023-08-06T00:50:45;100256.09;;;14.91;100.00
81299;BME280;70766;53.170;18.160;2023-08-06T00:53:14;100250.62;;;14.88;100.00
81299;BME280;70766;53.170;18.160;2023-08-06T00:55:44;100241.21;;;14.88;100.00
81299;BME280;70766;53.170;18.160;2023-08-06T00:58:13;100228.63;;;14.86;100.00
81299;BME280;70766;53.170;18.160;2023-08-06T01:00:43;100218.78;;;14.84;100.00
81299;BME280;70766;53.170;18.160;2023-08-06T01:03:11;100229.21;;;14.86;100.00
81299;BME280;70766;53.170;18.160;2023-08-06T01:05:39;100226.52;;;14.87;100.00
81299;BME280;70766;53.170;18.160;2023-08-06T01:11:05;100222.41;;;14.85;100.00
81299;BME280;70766;53.170;18.160;2023-08-06T01:13:42;100212.08;;;14.86;100.00
81299;BME280;70766;53.170;18.160;2023-08-06T01:16:15;100200.62;;;14.81;100.00
81299;BME280;70766;53.170;18.160;2023-08-06T01:18:46;100190.73;;;14.82;100.00
81299;BME280;70766;53.170;18.160;2023-08-06T01:21:18;100179.77;;;14.83;100.00
81299;BME280;70766;53.170;18.160;2023-08-06T01:23:47;100168.53;;;14.84;100.00
81299;BME280;70766;53.170;18.160;2023-08-06T01:26:25;100161.56;;;14.87;100.00
81299;BME280;70766;53.170;18.160;2023-08-06T01:31:32;100137.58;;;14.88;100.00
81299;BME280;70766;53.170;18.160;2023-08-06T01:34:03;100131.09;;;14.85;100.00
81299;BME280;70766;53.170;18.160;2023-08-06T01:36:33;100119.27;;;14.86;100.00
81299;BME280;70766;53.170;18.160;2023-08-06T01:39:01;100106.77;;;14.90;100.00
81299;BME280;70766;53.170;18.160;2023-08-06T01:41:30;100088.51;;;14.89;100.00
81299;BME280;70766;53.170;18.160;2023-08-06T01:43:58;100075.49;;;14.91;100.00
81299;BME280;70766;53.170;18.160;2023-08-06T01:46:26;100069.92;;;14.90;100.00
81299;BME280;70766;53.170;18.160;2023-08-06T01:48:54;100072.08;;;14.89;100.00
81299;BME280;70766;53.170;18.160;2023-08-06T01:51:22;100080.52;;;14.92;100.00
81299;BME280;70766;53.170;18.160;2023-08-06T01:53:50;100081.17;;;14.95;100.00
81299;BME280;70766;53.170;18.160;2023-08-06T01:56:18;100072.08;;;14.94;100.00
81299;BME280;70766;53.170;18.160;2023-08-06T01:58:47;100065.11;;;14.96;100.00
81299;BME280;70766;53.170;18.160;2023-08-06T02:01:15;100058.73;;;14.97;100.00
81299;BME280;70766;53.170;18.160;2023-08-06T02:03:43;100043.66;;;14.99;100.00
81299;BME280;70766;53.170;18.160;2023-08-06T02:06:11;100034.75;;;14.98;100.00
81299;BME280;70766;53.170;18.160;2023-08-06T02:08:40;100017.02;;;14.97;100.00
81299;BME280;70766;53.170;18.160;2023-08-06T02:11:08;100001.07;;;14.94;100.00
81299;BME280;70766;53.170;18.160;2023-08-06T02:13:36;99982.77;;;14.92;100.00
81299;BME280;70766;53.170;18.160;2023-08-06T02:16:07;99969.58;;;14.91;100.00
81299;BME280;70766;53.170;18.160;2023-08-06T02:18:38;99964.82;;;14.90;100.00
81299;BME280;70766;53.170;18.160;2023-08-06T02:21:06;99956.98;;;14.90;100.00
81299;BME280;70766;53.170;18.160;2023-08-06T02:23:36;99960.28;;;14.92;100.00
81299;BME280;70766;53.170;18.160;2023-08-06T02:26:05;99962.55;;;14.92;100.00
81299;BME280;70766;53.170;18.160;2023-08-06T02:28:33;99965.73;;;14.92;100.00
81299;BME280;70766;53.170;18.160;2023-08-06T02:31:01;99964.00;;;14.93;100.00
81299;BME280;70766;53.170;18.160;2023-08-06T02:33:29;99972.16;;;14.95;100.00
81299;BME280;70766;53.170;18.160;2023-08-06T02:36:04;99980.70;;;14.98;100.00
81299;BME280;70766;53.170;18.160;2023-08-06T02:38:32;99981.84;;;15.00;100.00
81299;BME280;70766;53.170;18.160;2023-08-06T02:41:04;99974.21;;;15.01;100.00
81299;BME280;70766;53.170;18.160;2023-08-06T02:43:32;99970.64;;;15.02;100.00
81299;BME280;70766;53.170;18.160;2023-08-06T02:46:01;99961.36;;;15.02;100.00
81299;BME280;70766;53.170;18.160;2023-08-06T02:48:29;99960.64;;;15.01;100.00
81299;BME280;70766;53.170;18.160;2023-08-06T02:50:58;99956.00;;;15.01;100.00
81299;BME280;70766;53.170;18.160;2023-08-06T02:53:28;99955.88;;;15.04;100.00
81299;BME280;70766;53.170;18.160;2023-08-06T02:55:57;99951.61;;;15.08;100.00
81299;BME280;70766;53.170;18.160;2023-08-06T02:58:31;99957.07;;;15.08;100.00
81299;BME280;70766;53.170;18.160;2023-08-06T03:01:15;99960.89;;;15.11;100.00
81299;BME280;70766;53.170;18.160;2023-08-06T03:03:48;99959.80;;;15.14;100.00
81299;BME280;70766;53.170;18.160;2023-08-06T03:06:21;99954.34;;;15.15;100.00
81299;BME280;70766;53.170;18.160;2023-08-06T03:08:50;99948.67;;;15.17;100.00
81299;BME280;70766;53.170;18.160;2023-08-06T03:11:18;99934.71;;;15.16;100.00
81299;BME280;70766;53.170;18.160;2023-08-06T03:13:49;99922.17;;;15.19;100.00
81299;BME280;70766;53.170;18.160;2023-08-06T03:16:17;99912.55;;;15.20;100.00
81299;BME280;70766;53.170;18.160;2023-08-06T03:18:45;99921.35;;;15.23;100.00
81299;BME280;70766;53.170;18.160;2023-08-06T03:21:13;99917.83;;;15.26;100.00
81299;BME280;70766;53.170;18.160;2023-08-06T03:23:41;99920.46;;;15.28;100.00
81299;BME280;70766;53.170;18.160;2023-08-06T03:26:10;99921.43;;;15.31;100.00
81299;BME280;70766;53.170;18.160;2023-08-06T03:28:38;99916.44;;;15.34;100.00
81299;BME280;70766;53.170;18.160;2023-08-06T03:31:06;99912.13;;;15.34;100.00
81299;BME280;70766;53.170;18.160;2023-08-06T03:33:38;99911.89;;;15.37;100.00
81299;BME280;70766;53.170;18.160;2023-08-06T03:36:09;99913.75;;;15.39;100.00
81299;BME280;70766;53.170;18.160;2023-08-06T03:38:38;99916.11;;;15.43;100.00
81299;BME280;70766;53.170;18.160;2023-08-06T03:41:07;99911.89;;;15.46;100.00
81299;BME280;70766;53.170;18.160;2023-08-06T03:43:35;99904.58;;;15.49;100.00
81299;BME280;70766;53.170;18.160;2023-08-06T03:46:06;99894.40;;;15.48;100.00
81299;BME280;70766;53.170;18.160;2023-08-06T03:48:34;99884.07;;;15.51;100.00
81299;BME280;70766;53.170;18.160;2023-08-06T03:51:02;99879.89;;;15.53;100.00
81299;BME280;70766;53.170;18.160;2023-08-06T03:53:30;99871.27;;;15.56;100.00
81299;BME280;70766;53.170;18.160;2023-08-06T03:55:58;99861.85;;;15.59;100.00
81299;BME280;70766;53.170;18.160;2023-08-06T03:58:31;99842.80;;;15.61;100.00
81299;BME280;70766;53.170;18.160;2023-08-06T04:01:02;99828.54;;;15.65;100.00
81299;BME280;70766;53.170;18.160;2023-08-06T04:03:49;99810.04;;;15.67;100.00
81299;BME280;70766;53.170;18.160;2023-08-06T04:06:17;99790.32;;;15.68;100.00
81299;BME280;70766;53.170;18.160;2023-08-06T04:08:45;99767.14;;;15.71;100.00
81299;BME280;70766;53.170;18.160;2023-08-06T04:11:13;99737.42;;;15.73;100.00
81299;BME280;70766;53.170;18.160;2023-08-06T04:13:43;99714.09;;;15.75;100.00
81299;BME280;70766;53.170;18.160;2023-08-06T04:16:11;99709.98;;;15.75;100.00
81299;BME280;70766;53.170;18.160;2023-08-06T04:18:41;99730.53;;;15.75;100.00
81299;BME280;70766;53.170;18.160;2023-08-06T04:21:09;99733.67;;;15.76;100.00
81299;BME280;70766;53.170;18.160;2023-08-06T04:23:37;99719.65;;;15.78;100.00
81299;BME280;70766;53.170;18.160;2023-08-06T04:26:07;99717.39;;;15.81;100.00
81299;BME280;70766;53.170;18.160;2023-08-06T04:28:36;99727.21;;;15.84;100.00
81299;BME280;70766;53.170;18.160;2023-08-06T04:31:04;99731.50;;;15.89;100.00
81299;BME280;70766;53.170;18.160;2023-08-06T04:33:33;99742.59;;;15.90;100.00
81299;BME280;70766;53.170;18.160;2023-08-06T04:36:06;99744.61;;;15.95;100.00
81299;BME280;70766;53.170;18.160;2023-08-06T04:38:35;99727.17;;;15.96;100.00
81299;BME280;70766;53.170;18.160;2023-08-06T04:41:03;99720.45;;;15.98;100.00
81299;BME280;70766;53.170;18.160;2023-08-06T04:43:31;99721.77;;;16.02;100.00
81299;BME280;70766;53.170;18.160;2023-08-06T04:46:00;99728.33;;;16.06;100.00
81299;BME280;70766;53.170;18.160;2023-08-06T04:48:28;99720.11;;;16.12;100.00
81299;BME280;70766;53.170;18.160;2023-08-06T04:50:56;99716.08;;;16.12;100.00
81299;BME280;70766;53.170;18.160;2023-08-06T04:53:24;99714.68;;;16.15;100.00
81299;BME280;70766;53.170;18.160;2023-08-06T04:55:52;99713.23;;;16.17;100.00
81299;BME280;70766;53.170;18.160;2023-08-06T04:58:20;99721.76;;;16.23;100.00
81299;BME280;70766;53.170;18.160;2023-08-06T05:00:48;99721.20;;;16.26;100.00
81299;BME280;70766;53.170;18.160;2023-08-06T05:03:16;99718.95;;;16.29;100.00
81299;BME280;70766;53.170;18.160;2023-08-06T05:05:45;99700.34;;;16.31;100.00
81299;BME280;70766;53.170;18.160;2023-08-06T05:08:15;99676.88;;;16.41;100.00
81299;BME280;70766;53.170;18.160;2023-08-06T05:10:45;99651.86;;;16.48;100.00
81299;BME280;70766;53.170;18.160;2023-08-06T05:13:13;99657.30;;;16.51;100.00
81299;BME280;70766;53.170;18.160;2023-08-06T05:15:42;99676.11;;;16.54;100.00
81299;BME280;70766;53.170;18.160;2023-08-06T05:18:10;99670.52;;;16.56;100.00
81299;BME280;70766;53.170;18.160;2023-08-06T05:20:40;99664.77;;;16.59;100.00
81299;BME280;70766;53.170;18.160;2023-08-06T05:23:09;99658.20;;;16.62;100.00
81299;BME280;70766;53.170;18.160;2023-08-06T05:25:38;99676.48;;;16.63;100.00
81299;BME280;70766;53.170;18.160;2023-08-06T05:28:06;99684.45;;;16.63;100.00
81299;BME280;70766;53.170;18.160;2023-08-06T05:30:39;99683.08;;;16.64;100.00
81299;BME280;70766;53.170;18.160;2023-08-06T05:33:07;99680.60;;;16.68;100.00
81299;BME280;70766;53.170;18.160;2023-08-06T05:35:35;99679.36;;;16.71;100.00
81299;BME280;70766;53.170;18.160;2023-08-06T05:38:03;99677.83;;;16.72;100.00
81299;BME280;70766;53.170;18.160;2023-08-06T05:40:33;99679.03;;;16.72;100.00
81299;BME280;70766;53.170;18.160;2023-08-06T05:43:01;99669.52;;;16.74;100.00
81299;BME280;70766;53.170;18.160;2023-08-06T05:45:30;99662.60;;;16.76;100.00
81299;BME280;70766;53.170;18.160;2023-08-06T05:47:58;99658.01;;;16.79;100.00
81299;BME280;70766;53.170;18.160;2023-08-06T05:50:26;99661.68;;;16.80;100.00
81299;BME280;70766;53.170;18.160;2023-08-06T05:52:54;99667.87;;;16.83;100.00
81299;BME280;70766;53.170;18.160;2023-08-06T05:55:22;99666.36;;;16.87;100.00
81299;BME280;70766;53.170;18.160;2023-08-06T05:57:50;99663.33;;;16.90;100.00
81299;BME280;70766;53.170;18.160;2023-08-06T06:00:21;99664.36;;;16.90;100.00
81299;BME280;70766;53.170;18.160;2023-08-06T06:02:49;99664.30;;;16.95;100.00
81299;BME280;70766;53.170;18.160;2023-08-06T06:05:17;99666.45;;;17.00;100.00
81299;BME280;70766;53.170;18.160;2023-08-06T06:07:45;99655.90;;;17.02;100.00
81299;BME280;70766;53.170;18.160;2023-08-06T06:10:14;99647.19;;;17.01;100.00
81299;BME280;70766;53.170;18.160;2023-08-06T06:12:42;99635.75;;;17.05;100.00
81299;BME280;70766;53.170;18.160;2023-08-06T06:15:10;99629.15;;;17.11;100.00
81299;BME280;70766;53.170;18.160;2023-08-06T06:17:38;99627.63;;;17.18;100.00
81299;BME280;70766;53.170;18.160;2023-08-06T06:20:07;99632.01;;;17.19;100.00
81299;BME280;70766;53.170;18.160;2023-08-06T06:22:35;99624.20;;;17.22;100.00
81299;BME280;70766;53.170;18.160;2023-08-06T06:25:03;99622.12;;;17.23;100.00
81299;BME280;70766;53.170;18.160;2023-08-06T06:27:31;99617.95;;;17.26;100.00
81299;BME280;70766;53.170;18.160;2023-08-06T06:29:59;99611.06;;;17.30;100.00
81299;BME280;70766;53.170;18.160;2023-08-06T06:32:27;99606.02;;;17.37;100.00
81299;BME280;70766;53.170;18.160;2023-08-06T06:34:55;99598.95;;;17.40;100.00
81299;BME280;70766;53.170;18.160;2023-08-06T06:37:23;99592.72;;;17.40;100.00
81299;BME280;70766;53.170;18.160;2023-08-06T06:39:51;99588.48;;;17.45;100.00
81299;BME280;70766;53.170;18.160;2023-08-06T06:42:20;99585.92;;;17.46;100.00
81299;BME280;70766;53.170;18.160;2023-08-06T06:44:50;99580.05;;;17.56;100.00
81299;BME280;70766;53.170;18.160;2023-08-06T06:47:18;99578.05;;;17.59;100.00
81299;BME280;70766;53.170;18.160;2023-08-06T06:49:47;99575.79;;;17.64;100.00
81299;BME280;70766;53.170;18.160;2023-08-06T06:52:15;99575.46;;;17.69;100.00
81299;BME280;70766;53.170;18.160;2023-08-06T06:54:43;99580.26;;;17.71;100.00
81299;BME280;70766;53.170;18.160;2023-08-06T06:57:12;99578.87;;;17.79;100.00
81299;BME280;70766;53.170;18.160;2023-08-06T06:59:40;99577.46;;;17.84;100.00
81299;BME280;70766;53.170;18.160;2023-08-06T07:02:08;99574.96;;;17.87;100.00
81299;BME280;70766;53.170;18.160;2023-08-06T07:04:36;99559.60;;;17.87;100.00
81299;BME280;70766;53.170;18.160;2023-08-06T07:07:04;99561.38;;;17.90;100.00
81299;BME280;70766;53.170;18.160;2023-08-06T07:09:33;99553.99;;;17.93;100.00
81299;BME280;70766;53.170;18.160;2023-08-06T07:12:01;99560.90;;;18.06;100.00
81299;BME280;70766;53.170;18.160;2023-08-06T07:14:30;99558.04;;;18.10;100.00
81299;BME280;70766;53.170;18.160;2023-08-06T07:16:58;99552.28;;;18.16;100.00
81299;BME280;70766;53.170;18.160;2023-08-06T07:19:26;99547.85;;;18.22;100.00
81299;BME280;70766;53.170;18.160;2023-08-06T07:21:55;99549.20;;;18.23;100.00
81299;BME280;70766;53.170;18.160;2023-08-06T07:24:24;99552.29;;;18.23;100.00
81299;BME280;70766;53.170;18.160;2023-08-06T07:26:53;99549.27;;;18.23;100.00
81299;BME280;70766;53.170;18.160;2023-08-06T07:29:28;99546.58;;;18.26;100.00
81299;BME280;70766;53.170;18.160;2023-08-06T07:31:56;99533.88;;;18.25;100.00
81299;BME280;70766;53.170;18.160;2023-08-06T07:34:25;99525.27;;;18.27;100.00
81299;BME280;70766;53.170;18.160;2023-08-06T07:36:56;99521.53;;;18.34;100.00
81299;BME280;70766;53.170;18.160;2023-08-06T07:39:24;99518.89;;;18.32;100.00
81299;BME280;70766;53.170;18.160;2023-08-06T07:41:53;99513.13;;;18.41;100.00
81299;BME280;70766;53.170;18.160;2023-08-06T07:44:24;99497.20;;;18.47;100.00
81299;BME280;70766;53.170;18.160;2023-08-06T07:46:54;99488.03;;;18.46;100.00
81299;BME280;70766;53.170;18.160;2023-08-06T07:49:23;99483.87;;;18.50;100.00
81299;BME280;70766;53.170;18.160;2023-08-06T07:51:52;99492.84;;;18.55;100.00
81299;BME280;70766;53.170;18.160;2023-08-06T07:54:21;99487.52;;;18.54;100.00
81299;BME280;70766;53.170;18.160;2023-08-06T07:56:56;99487.11;;;18.55;100.00
81299;BME280;70766;53.170;18.160;2023-08-06T07:59:24;99492.77;;;18.55;100.00
81299;BME280;70766;53.170;18.160;2023-08-06T08:01:52;99489.22;;;18.51;100.00
81299;BME280;70766;53.170;18.160;2023-08-06T08:04:21;99477.20;;;18.51;100.00
81299;BME280;70766;53.170;18.160;2023-08-06T08:06:49;99469.45;;;18.60;100.00
81299;BME280;70766;53.170;18.160;2023-08-06T08:09:18;99463.34;;;18.65;100.00
81299;BME280;70766;53.170;18.160;2023-08-06T08:11:47;99468.42;;;18.68;100.00
81299;BME280;70766;53.170;18.160;2023-08-06T08:14:17;99469.48;;;18.74;100.00
81299;BME280;70766;53.170;18.160;2023-08-06T08:16:45;99471.04;;;18.77;100.00
81299;BME280;70766;53.170;18.160;2023-08-06T08:19:14;99466.99;;;18.78;100.00
81299;BME280;70766;53.170;18.160;2023-08-06T08:21:42;99463.93;;;18.85;100.00
81299;BME280;70766;53.170;18.160;2023-08-06T08:24:10;99458.82;;;18.79;100.00
81299;BME280;70766;53.170;18.160;2023-08-06T08:26:38;99446.80;;;18.81;100.00
81299;BME280;70766;53.170;18.160;2023-08-06T08:29:06;99447.73;;;18.81;100.00
81299;BME280;70766;53.170;18.160;2023-08-06T08:31:35;99446.27;;;18.91;100.00
81299;BME280;70766;53.170;18.160;2023-08-06T08:34:07;99442.97;;;18.88;100.00
81299;BME280;70766;53.170;18.160;2023-08-06T08:36:35;99436.64;;;18.79;100.00
81299;BME280;70766;53.170;18.160;2023-08-06T08:39:04;99432.69;;;18.85;100.00
81299;BME280;70766;53.170;18.160;2023-08-06T08:41:36;99426.49;;;18.82;100.00
81299;BME280;70766;53.170;18.160;2023-08-06T08:44:09;99418.37;;;18.83;100.00
81299;BME280;70766;53.170;18.160;2023-08-06T08:46:41;99408.80;;;18.87;100.00
81299;BME280;70766;53.170;18.160;2023-08-06T08:49:10;99404.60;;;18.90;100.00
81299;BME280;70766;53.170;18.160;2023-08-06T08:51:43;99400.45;;;19.00;100.00
81299;BME280;70766;53.170;18.160;2023-08-06T08:54:15;99396.45;;;19.08;100.00
81299;BME280;70766;53.170;18.160;2023-08-06T08:56:46;99395.54;;;19.09;100.00
81299;BME280;70766;53.170;18.160;2023-08-06T08:59:16;99396.71;;;19.08;100.00
81299;BME280;70766;53.170;18.160;2023-08-06T09:01:48;99394.11;;;18.98;100.00
81299;BME280;70766;53.170;18.160;2023-08-06T09:04:21;99393.70;;;18.93;100.00
81299;BME280;70766;53.170;18.160;2023-08-06T09:06:52;99383.71;;;18.96;100.00
81299;BME280;70766;53.170;18.160;2023-08-06T09:09:26;99379.59;;;18.90;100.00
81299;BME280;70766;53.170;18.160;2023-08-06T09:12:01;99372.36;;;18.86;100.00
81299;BME280;70766;53.170;18.160;2023-08-06T09:14:30;99371.67;;;18.76;100.00
81299;BME280;70766;53.170;18.160;2023-08-06T09:16:59;99367.08;;;18.78;100.00
81299;BME280;70766;53.170;18.160;2023-08-06T09:19:28;99370.52;;;18.69;100.00
81299;BME280;70766;53.170;18.160;2023-08-06T09:21:56;99367.61;;;18.64;100.00
81299;BME280;70766;53.170;18.160;2023-08-06T09:24:25;99370.98;;;18.57;100.00
81299;BME280;70766;53.170;18.160;2023-08-06T09:26:54;99367.10;;;18.55;100.00
81299;BME280;70766;53.170;18.160;2023-08-06T09:29:23;99361.17;;;18.58;100.00
81299;BME280;70766;53.170;18.160;2023-08-06T09:31:51;99353.73;;;18.60;100.00
81299;BME280;70766;53.170;18.160;2023-08-06T09:34:22;99351.36;;;18.69;100.00
81299;BME280;70766;53.170;18.160;2023-08-06T09:36:52;99346.59;;;18.78;100.00
81299;BME280;70766;53.170;18.160;2023-08-06T09:39:30;99342.19;;;18.90;100.00
81299;BME280;70766;53.170;18.160;2023-08-06T09:42:00;99341.12;;;18.93;100.00
81299;BME280;70766;53.170;18.160;2023-08-06T09:44:31;99343.68;;;18.93;100.00
81299;BME280;70766;53.170;18.160;2023-08-06T09:47:02;99337.64;;;19.01;100.00
81299;BME280;70766;53.170;18.160;2023-08-06T09:52:02;99322.00;;;19.04;100.00
81299;BME280;70766;53.170;18.160;2023-08-06T09:54:32;99317.56;;;18.97;100.00
81299;BME280;70766;53.170;18.160;2023-08-06T09:57:04;99308.87;;;18.89;100.00
81299;BME280;70766;53.170;18.160;2023-08-06T09:59:34;99306.52;;;19.02;100.00
81299;BME280;70766;53.170;18.160;2023-08-06T10:02:10;99314.35;;;18.99;100.00
81299;BME280;70766;53.170;18.160;2023-08-06T10:04:40;99304.16;;;18.99;100.00
81299;BME280;70766;53.170;18.160;2023-08-06T10:07:10;99305.16;;;19.09;100.00
81299;BME280;70766;53.170;18.160;2023-08-06T10:09:41;99286.60;;;19.06;100.00
81299;BME280;70766;53.170;18.160;2023-08-06T10:12:09;99283.14;;;19.16;100.00
81299;BME280;70766;53.170;18.160;2023-08-06T10:14:38;99286.63;;;19.21;100.00
81299;BME280;70766;53.170;18.160;2023-08-06T10:17:08;99279.09;;;19.14;100.00
81299;BME280;70766;53.170;18.160;2023-08-06T10:19:37;99280.56;;;19.03;100.00
81299;BME280;70766;53.170;18.160;2023-08-06T10:22:09;99283.56;;;18.88;100.00
81299;BME280;70766;53.170;18.160;2023-08-06T10:30:22;99272.32;;;19.03;100.00
81299;BME280;70766;53.170;18.160;2023-08-06T10:32:53;99264.00;;;19.06;100.00
81299;BME280;70766;53.170;18.160;2023-08-06T10:35:35;99262.80;;;19.10;100.00
81299;BME280;70766;53.170;18.160;2023-08-06T10:38:05;99262.48;;;19.08;100.00
81299;BME280;70766;53.170;18.160;2023-08-06T10:45:59;99239.68;;;19.14;100.00
81299;BME280;70766;53.170;18.160;2023-08-06T10:48:41;99241.27;;;19.26;100.00
81299;BME280;70766;53.170;18.160;2023-08-06T10:51:10;99236.67;;;19.26;100.00
81299;BME280;70766;53.170;18.160;2023-08-06T10:53:43;99228.11;;;19.30;100.00
81299;BME280;70766;53.170;18.160;2023-08-06T10:56:22;99220.34;;;19.40;100.00
81299;BME280;70766;53.170;18.160;2023-08-06T10:58:53;99218.85;;;19.52;100.00
81299;BME280;70766;53.170;18.160;2023-08-06T11:01:23;99208.09;;;19.58;100.00
81299;BME280;70766;53.170;18.160;2023-08-06T11:03:52;99211.45;;;19.53;100.00
81299;BME280;70766;53.170;18.160;2023-08-06T11:06:22;99207.16;;;19.39;100.00
81299;BME280;70766;53.170;18.160;2023-08-06T11:08:53;99200.81;;;19.38;100.00
81299;BME280;70766;53.170;18.160;2023-08-06T11:11:23;99196.12;;;19.46;100.00
81299;BME280;70766;53.170;18.160;2023-08-06T11:13:52;99186.83;;;19.40;100.00
81299;BME280;70766;53.170;18.160;2023-08-06T11:16:24;99189.52;;;19.29;100.00
81299;BME280;70766;53.170;18.160;2023-08-06T11:18:53;99192.27;;;19.20;100.00
81299;BME280;70766;53.170;18.160;2023-08-06T11:21:22;99190.05;;;19.26;100.00
81299;BME280;70766;53.170;18.160;2023-08-06T11:23:53;99181.79;;;19.32;100.00
81299;BME280;70766;53.170;18.160;2023-08-06T11:26:22;99173.58;;;19.34;100.00
81299;BME280;70766;53.170;18.160;2023-08-06T11:28:57;99168.79;;;19.27;100.00
81299;BME280;70766;53.170;18.160;2023-08-06T11:31:25;99168.96;;;19.30;100.00
81299;BME280;70766;53.170;18.160;2023-08-06T11:33:54;99164.07;;;19.30;100.00
81299;BME280;70766;53.170;18.160;2023-08-06T11:36:30;99157.87;;;19.32;100.00
81299;BME280;70766;53.170;18.160;2023-08-06T11:39:00;99148.71;;;19.39;100.00
81299;BME280;70766;53.170;18.160;2023-08-06T11:41:29;99140.42;;;19.40;100.00
81299;BME280;70766;53.170;18.160;2023-08-06T11:44:00;99128.02;;;19.48;100.00
81299;BME280;70766;53.170;18.160;2023-08-06T11:46:28;99126.63;;;19.62;100.00
81299;BME280;70766;53.170;18.160;2023-08-06T11:48:58;99123.67;;;19.72;100.00
81299;BME280;70766;53.170;18.160;2023-08-06T11:51:27;99121.70;;;19.74;100.00
81299;BME280;70766;53.170;18.160;2023-08-06T11:53:57;99117.36;;;19.83;100.00
81299;BME280;70766;53.170;18.160;2023-08-06T11:56:26;99106.91;;;19.97;100.00
81299;BME280;70766;53.170;18.160;2023-08-06T11:58:56;99104.25;;;20.03;100.00
81299;BME280;70766;53.170;18.160;2023-08-06T12:01:26;99096.25;;;20.02;100.00
81299;BME280;70766;53.170;18.160;2023-08-06T12:03:59;99087.48;;;20.11;100.00
81299;BME280;70766;53.170;18.160;2023-08-06T12:06:30;99084.46;;;20.14;100.00
81299;BME280;70766;53.170;18.160;2023-08-06T12:08:59;99084.06;;;20.15;100.00
81299;BME280;70766;53.170;18.160;2023-08-06T12:11:28;99085.85;;;20.09;100.00
81299;BME280;70766;53.170;18.160;2023-08-06T12:13:56;99091.04;;;20.07;100.00
81299;BME280;70766;53.170;18.160;2023-08-06T12:16:24;99093.50;;;19.98;100.00
81299;BME280;70766;53.170;18.160;2023-08-06T12:18:52;99092.23;;;19.99;100.00
81299;BME280;70766;53.170;18.160;2023-08-06T12:21:20;99094.60;;;19.99;100.00
81299;BME280;70766;53.170;18.160;2023-08-06T12:23:49;99093.27;;;19.96;100.00
81299;BME280;70766;53.170;18.160;2023-08-06T12:26:17;99092.39;;;19.94;100.00
81299;BME280;70766;53.170;18.160;2023-08-06T12:28:45;99092.63;;;19.93;100.00
81299;BME280;70766;53.170;18.160;2023-08-06T12:31:13;99088.55;;;19.90;100.00
81299;BME280;70766;53.170;18.160;2023-08-06T12:33:41;99090.40;;;19.80;100.00
81299;BME280;70766;53.170;18.160;2023-08-06T12:36:09;99084.13;;;19.81;100.00
81299;BME280;70766;53.170;18.160;2023-08-06T12:38:37;99077.84;;;19.81;100.00
81299;BME280;70766;53.170;18.160;2023-08-06T12:41:06;99081.59;;;19.78;100.00
81299;BME280;70766;53.170;18.160;2023-08-06T12:43:34;99079.98;;;19.75;100.00
81299;BME280;70766;53.170;18.160;2023-08-06T12:46:02;99066.92;;;19.86;100.00
81299;BME280;70766;53.170;18.160;2023-08-06T12:48:30;99058.02;;;19.93;100.00
81299;BME280;70766;53.170;18.160;2023-08-06T12:50:58;99055.23;;;20.01;100.00
81299;BME280;70766;53.170;18.160;2023-08-06T12:53:27;99052.58;;;20.12;100.00
81299;BME280;70766;53.170;18.160;2023-08-06T12:55:55;99053.42;;;20.21;100.00
81299;BME280;70766;53.170;18.160;2023-08-06T12:58:23;99054.48;;;20.26;100.00
81299;BME280;70766;53.170;18.160;2023-08-06T13:00:51;99044.95;;;20.33;100.00
81299;BME280;70766;53.170;18.160;2023-08-06T13:03:19;99043.81;;;20.45;100.00
81299;BME280;70766;53.170;18.160;2023-08-06T13:05:47;99036.86;;;20.55;100.00
81299;BME280;70766;53.170;18.160;2023-08-06T13:08:17;99026.65;;;20.94;100.00